sensor_id;sensor_type;location;lat;lon;timestamp;P1;durP1;ratioP1;P2;durP2;ratioP2
12441;SDS011;6285;48.804;9.220;2022-07-21T00:00:13;16.85;;;15.20;;
12441;SDS011;6285;48.804;9.220;2022-07-21T00:02:43;16.85;;;15.15;;
12441;SDS011;6285;48.804;9.220;2022-07-21T00:05:10;16.10;;;14.50;;
12441;SDS011;6285;48.804;9.220;2022-07-21T00:07:37;17.05;;;15.43;;
12441;SDS011;6285;48.804;9.220;2022-07-21T00:10:04;17.20;;;15.50;;
12441;SDS011;6285;48.804;9.220;2022-07-21T00:12:31;17.02;;;15.32;;
12441;SDS011;6285;48.804;9.220;2022-07-21T00:14:58;17.20;;;15.45;;
12441;SDS011;6285;48.804;9.220;2022-07-21T00:17:26;17.50;;;15.80;;
12441;SDS011;6285;48.804;9.220;2022-07-21T00:19:54;15.55;;;13.90;;
12441;SDS011;6285;48.804;9.220;2022-07-21T00:22:21;15.30;;;13.68;;
12441;SDS011;6285;48.804;9.220;2022-07-21T00:24:48;15.98;;;14.02;;
12441;SDS011;6285;48.804;9.220;2022-07-21T00:27:15;16.48;;;14.93;;
12441;SDS011;6285;48.804;9.220;2022-07-21T00:29:42;14.98;;;13.45;;
12441;SDS011;6285;48.804;9.220;2022-07-21T00:32:09;14.70;;;13.20;;
12441;SDS011;6285;48.804;9.220;2022-07-21T00:34:36;14.68;;;12.98;;
12441;SDS011;6285;48.804;9.220;2022-07-21T00:37:04;15.07;;;13.30;;
12441;SDS011;6285;48.804;9.220;2022-07-21T00:39:31;14.30;;;12.77;;
12441;SDS011;6285;48.804;9.220;2022-07-21T00:41:58;15.68;;;13.00;;
12441;SDS011;6285;48.804;9.220;2022-07-21T00:44:26;14.18;;;12.77;;
12441;SDS011;6285;48.804;9.220;2022-07-21T00:46:53;13.80;;;12.50;;
12441;SDS011;6285;48.804;9.220;2022-07-21T00:49:21;13.93;;;12.52;;
12441;SDS011;6285;48.804;9.220;2022-07-21T00:51:48;14.60;;;13.10;;
12441;SDS011;6285;48.804;9.220;2022-07-21T00:54:18;16.52;;;14.80;;
12441;SDS011;6285;48.804;9.220;2022-07-21T00:56:45;16.10;;;14.60;;
12441;SDS011;6285;48.804;9.220;2022-07-21T00:59:12;15.07;;;13.57;;
12441;SDS011;6285;48.804;9.220;2022-07-21T01:01:40;14.90;;;13.60;;
12441;SDS011;6285;48.804;9.220;2022-07-21T01:04:07;14.50;;;13.10;;
12441;SDS011;6285;48.804;9.220;2022-07-21T01:06:34;14.38;;;13.00;;
12441;SDS011;6285;48.804;9.220;2022-07-21T01:09:01;13.55;;;12.25;;
12441;SDS011;6285;48.804;9.220;2022-07-21T01:11:29;13.70;;;12.40;;
12441;SDS011;6285;48.804;9.220;2022-07-21T01:13:57;14.07;;;12.73;;
12441;SDS011;6285;48.804;9.220;2022-07-21T01:16:24;14.40;;;12.95;;
12441;SDS011;6285;48.804;9.220;2022-07-21T01:18:51;13.80;;;12.40;;
12441;SDS011;6285;48.804;9.220;2022-07-21T01:21:26;13.45;;;12.10;;
12441;SDS011;6285;48.804;9.220;2022-07-21T01:23:55;14.55;;;13.07;;
12441;SDS011;6285;48.804;9.220;2022-07-21T01:26:23;13.52;;;12.23;;
12441;SDS011;6285;48.804;9.220;2022-07-21T01:28:50;13.38;;;12.10;;
12441;SDS011;6285;48.804;9.220;2022-07-21T01:31:17;13.73;;;12.27;;
12441;SDS011;6285;48.804;9.220;2022-07-21T01:33:44;14.23;;;12.80;;
12441;SDS011;6285;48.804;9.220;2022-07-21T01:36:11;13.60;;;12.30;;
12441;SDS011;6285;48.804;9.220;2022-07-21T01:38:39;13.30;;;12.10;;
12441;SDS011;6285;48.804;9.220;2022-07-21T01:41:24;13.55;;;11.85;;
12441;SDS011;6285;48.804;9.220;2022-07-21T01:43:58;13.40;;;12.10;;
12441;SDS011;6285;48.804;9.220;2022-07-21T01:46:26;14.60;;;12.55;;
12441;SDS011;6285;48.804;9.220;2022-07-21T01:48:54;14.27;;;12.70;;
12441;SDS011;6285;48.804;9.220;2022-07-21T01:51:21;13.90;;;12.55;;
12441;SDS011;6285;48.804;9.220;2022-07-21T01:53:50;13.70;;;12.30;;
12441;SDS011;6285;48.804;9.220;2022-07-21T01:56:18;15.52;;;12.68;;
12441;SDS011;6285;48.804;9.220;2022-07-21T01:58:46;14.88;;;12.15;;
12441;SDS011;6285;48.804;9.220;2022-07-21T02:01:14;13.65;;;12.25;;
12441;SDS011;6285;48.804;9.220;2022-07-21T02:03:41;13.80;;;12.60;;
12441;SDS011;6285;48.804;9.220;2022-07-21T02:06:08;13.80;;;12.30;;
12441;SDS011;6285;48.804;9.220;2022-07-21T02:08:35;14.20;;;12.70;;
12441;SDS011;6285;48.804;9.220;2022-07-21T02:11:04;14.23;;;12.68;;
12441;SDS011;6285;48.804;9.220;2022-07-21T02:13:32;12.05;;;10.85;;
12441;SDS011;6285;48.804;9.220;2022-07-21T02:15:59;12.05;;;10.80;;
12441;SDS011;6285;48.804;9.220;2022-07-21T02:18:26;12.50;;;11.27;;
12441;SDS011;6285;48.804;9.220;2022-07-21T02:20:53;12.90;;;11.60;;
12441;SDS011;6285;48.804;9.220;2022-07-21T02:23:20;13.38;;;11.02;;
12441;SDS011;6285;48.804;9.220;2022-07-21T02:25:48;12.70;;;11.50;;
12441;SDS011;6285;48.804;9.220;2022-07-21T02:28:16;13.27;;;11.70;;
12441;SDS011;6285;48.804;9.220;2022-07-21T02:30:43;12.48;;;11.20;;
12441;SDS011;6285;48.804;9.220;2022-07-21T02:33:10;12.82;;;11.63;;
12441;SDS011;6285;48.804;9.220;2022-07-21T02:35:37;13.32;;;11.95;;
12441;SDS011;6285;48.804;9.220;2022-07-21T02:38:05;12.80;;;11.70;;
12441;SDS011;6285;48.804;9.220;2022-07-21T02:40:32;13.32;;;11.95;;
12441;SDS011;6285;48.804;9.220;2022-07-21T02:42:59;13.88;;;12.68;;
12441;SDS011;6285;48.804;9.220;2022-07-21T02:45:28;13.98;;;12.63;;
12441;SDS011;6285;48.804;9.220;2022-07-21T02:47:55;13.80;;;12.40;;
12441;SDS011;6285;48.804;9.220;2022-07-21T02:50:24;13.85;;;12.43;;
12441;SDS011;6285;48.804;9.220;2022-07-21T02:52:53;14.07;;;12.48;;
12441;SDS011;6285;48.804;9.220;2022-07-21T02:55:21;13.10;;;11.90;;
12441;SDS011;6285;48.804;9.220;2022-07-21T02:57:48;13.73;;;12.10;;
12441;SDS011;6285;48.804;9.220;2022-07-21T03:00:15;12.65;;;11.43;;
12441;SDS011;6285;48.804;9.220;2022-07-21T03:02:44;12.65;;;11.45;;
12441;SDS011;6285;48.804;9.220;2022-07-21T03:05:11;12.75;;;11.52;;
12441;SDS011;6285;48.804;9.220;2022-07-21T03:07:38;15.10;;;11.18;;
12441;SDS011;6285;48.804;9.220;2022-07-21T03:10:05;12.73;;;11.40;;
12441;SDS011;6285;48.804;9.220;2022-07-21T03:12:33;12.27;;;11.07;;
12441;SDS011;6285;48.804;9.220;2022-07-21T03:15:00;12.70;;;11.30;;
12441;SDS011;6285;48.804;9.220;2022-07-21T03:17:27;11.77;;;10.63;;
12441;SDS011;6285;48.804;9.220;2022-07-21T03:19:55;13.07;;;11.68;;
12441;SDS011;6285;48.804;9.220;2022-07-21T03:22:22;12.63;;;10.88;;
12441;SDS011;6285;48.804;9.220;2022-07-21T03:24:49;10.15;;;9.25;;
12441;SDS011;6285;48.804;9.220;2022-07-21T03:27:16;11.65;;;10.43;;
12441;SDS011;6285;48.804;9.220;2022-07-21T03:29:44;11.18;;;10.18;;
12441;SDS011;6285;48.804;9.220;2022-07-21T03:32:11;11.93;;;10.50;;
12441;SDS011;6285;48.804;9.220;2022-07-21T03:34:38;11.65;;;10.40;;
12441;SDS011;6285;48.804;9.220;2022-07-21T03:37:06;11.00;;;10.05;;
12441;SDS011;6285;48.804;9.220;2022-07-21T03:39:33;10.63;;;9.60;;
12441;SDS011;6285;48.804;9.220;2022-07-21T03:42:00;11.25;;;10.15;;
12441;SDS011;6285;48.804;9.220;2022-07-21T03:44:27;13.07;;;10.10;;
12441;SDS011;6285;48.804;9.220;2022-07-21T03:46:55;10.90;;;9.20;;
12441;SDS011;6285;48.804;9.220;2022-07-21T03:49:23;12.80;;;9.70;;
12441;SDS011;6285;48.804;9.220;2022-07-21T03:51:50;11.18;;;10.10;;
12441;SDS011;6285;48.804;9.220;2022-07-21T03:54:18;11.73;;;9.82;;
12441;SDS011;6285;48.804;9.220;2022-07-21T03:56:45;11.15;;;10.00;;
12441;SDS011;6285;48.804;9.220;2022-07-21T03:59:12;10.55;;;9.30;;
12441;SDS011;6285;48.804;9.220;2022-07-21T04:01:39;12.13;;;9.98;;
12441;SDS011;6285;48.804;9.220;2022-07-21T04:04:06;10.40;;;9.40;;
12441;SDS011;6285;48.804;9.220;2022-07-21T04:06:34;10.18;;;9.23;;
12441;SDS011;6285;48.804;9.220;2022-07-21T04:09:01;10.35;;;9.43;;
12441;SDS011;6285;48.804;9.220;2022-07-21T04:11:30;12.35;;;10.30;;
12441;SDS011;6285;48.804;9.220;2022-07-21T04:13:57;11.93;;;10.32;;
12441;SDS011;6285;48.804;9.220;2022-07-21T04:16:24;11.32;;;10.13;;
12441;SDS011;6285;48.804;9.220;2022-07-21T04:18:52;12.02;;;10.82;;
12441;SDS011;6285;48.804;9.220;2022-07-21T04:21:18;11.98;;;10.75;;
12441;SDS011;6285;48.804;9.220;2022-07-21T04:23:45;11.88;;;10.88;;
12441;SDS011;6285;48.804;9.220;2022-07-21T04:26:13;13.52;;;12.23;;
12441;SDS011;6285;48.804;9.220;2022-07-21T04:28:41;13.35;;;12.02;;
12441;SDS011;6285;48.804;9.220;2022-07-21T04:31:08;12.48;;;11.43;;
12441;SDS011;6285;48.804;9.220;2022-07-21T04:33:35;13.00;;;11.60;;
12441;SDS011;6285;48.804;9.220;2022-07-21T04:36:03;14.15;;;12.73;;
12441;SDS011;6285;48.804;9.220;2022-07-21T04:38:30;13.07;;;11.88;;
12441;SDS011;6285;48.804;9.220;2022-07-21T04:40:57;14.07;;;12.70;;
12441;SDS011;6285;48.804;9.220;2022-07-21T04:43:24;14.15;;;12.73;;
12441;SDS011;6285;48.804;9.220;2022-07-21T04:45:53;13.05;;;11.85;;
12441;SDS011;6285;48.804;9.220;2022-07-21T04:48:19;14.25;;;12.85;;
12441;SDS011;6285;48.804;9.220;2022-07-21T04:50:47;14.07;;;12.70;;
12441;SDS011;6285;48.804;9.220;2022-07-21T04:53:14;15.23;;;13.18;;
12441;SDS011;6285;48.804;9.220;2022-07-21T04:55:41;14.93;;;13.43;;
12441;SDS011;6285;48.804;9.220;2022-07-21T04:58:08;14.25;;;12.90;;
12441;SDS011;6285;48.804;9.220;2022-07-21T05:00:35;13.57;;;12.27;;
12441;SDS011;6285;48.804;9.220;2022-07-21T05:03:04;13.80;;;12.43;;
12441;SDS011;6285;48.804;9.220;2022-07-21T05:05:30;14.88;;;13.13;;
12441;SDS011;6285;48.804;9.220;2022-07-21T05:07:58;13.85;;;12.45;;
12441;SDS011;6285;48.804;9.220;2022-07-21T05:10:25;13.32;;;12.02;;
12441;SDS011;6285;48.804;9.220;2022-07-21T05:12:52;14.07;;;12.63;;
12441;SDS011;6285;48.804;9.220;2022-07-21T05:15:19;14.30;;;12.88;;
12441;SDS011;6285;48.804;9.220;2022-07-21T05:17:46;14.43;;;12.85;;
12441;SDS011;6285;48.804;9.220;2022-07-21T05:20:14;13.10;;;11.73;;
12441;SDS011;6285;48.804;9.220;2022-07-21T05:22:41;14.50;;;12.48;;
12441;SDS011;6285;48.804;9.220;2022-07-21T05:25:08;15.45;;;13.95;;
12441;SDS011;6285;48.804;9.220;2022-07-21T05:27:35;14.05;;;12.55;;
12441;SDS011;6285;48.804;9.220;2022-07-21T05:30:03;14.93;;;12.95;;
12441;SDS011;6285;48.804;9.220;2022-07-21T05:32:31;14.95;;;13.65;;
12441;SDS011;6285;48.804;9.220;2022-07-21T05:34:58;14.98;;;13.32;;
12441;SDS011;6285;48.804;9.220;2022-07-21T05:37:26;14.55;;;13.25;;
12441;SDS011;6285;48.804;9.220;2022-07-21T05:39:53;15.27;;;13.68;;
12441;SDS011;6285;48.804;9.220;2022-07-21T05:42:20;14.52;;;13.13;;
12441;SDS011;6285;48.804;9.220;2022-07-21T05:44:47;14.25;;;12.85;;
12441;SDS011;6285;48.804;9.220;2022-07-21T05:47:14;14.93;;;13.52;;
12441;SDS011;6285;48.804;9.220;2022-07-21T05:49:41;16.30;;;14.40;;
12441;SDS011;6285;48.804;9.220;2022-07-21T05:52:08;14.85;;;13.45;;
12441;SDS011;6285;48.804;9.220;2022-07-21T05:54:36;15.73;;;13.48;;
12441;SDS011;6285;48.804;9.220;2022-07-21T05:57:03;14.88;;;13.35;;
12441;SDS011;6285;48.804;9.220;2022-07-21T05:59:30;15.35;;;13.88;;
12441;SDS011;6285;48.804;9.220;2022-07-21T06:01:57;15.02;;;13.55;;
12441;SDS011;6285;48.804;9.220;2022-07-21T06:04:25;14.38;;;13.07;;
12441;SDS011;6285;48.804;9.220;2022-07-21T06:06:52;15.15;;;13.65;;
12441;SDS011;6285;48.804;9.220;2022-07-21T06:09:19;15.27;;;13.30;;
12441;SDS011;6285;48.804;9.220;2022-07-21T06:11:47;14.38;;;12.93;;
12441;SDS011;6285;48.804;9.220;2022-07-21T06:14:14;14.27;;;12.88;;
12441;SDS011;6285;48.804;9.220;2022-07-21T06:16:41;13.70;;;12.43;;
12441;SDS011;6285;48.804;9.220;2022-07-21T06:19:09;14.20;;;12.80;;
12441;SDS011;6285;48.804;9.220;2022-07-21T06:21:37;14.00;;;12.68;;
12441;SDS011;6285;48.804;9.220;2022-07-21T06:24:05;15.20;;;12.80;;
12441;SDS011;6285;48.804;9.220;2022-07-21T06:26:32;14.02;;;12.48;;
12441;SDS011;6285;48.804;9.220;2022-07-21T06:29:00;13.80;;;11.00;;
12441;SDS011;6285;48.804;9.220;2022-07-21T06:31:27;12.50;;;11.15;;
12441;SDS011;6285;48.804;9.220;2022-07-21T06:33:54;10.93;;;9.77;;
12441;SDS011;6285;48.804;9.220;2022-07-21T06:36:21;11.75;;;10.50;;
12441;SDS011;6285;48.804;9.220;2022-07-21T06:38:48;11.07;;;9.98;;
12441;SDS011;6285;48.804;9.220;2022-07-21T06:41:15;10.50;;;9.55;;
12441;SDS011;6285;48.804;9.220;2022-07-21T06:43:41;13.35;;;10.65;;
12441;SDS011;6285;48.804;9.220;2022-07-21T06:46:10;10.98;;;9.88;;
12441;SDS011;6285;48.804;9.220;2022-07-21T06:48:37;11.45;;;9.98;;
12441;SDS011;6285;48.804;9.220;2022-07-21T06:51:04;10.77;;;9.32;;
12441;SDS011;6285;48.804;9.220;2022-07-21T06:53:30;9.75;;;8.85;;
12441;SDS011;6285;48.804;9.220;2022-07-21T06:55:58;11.15;;;8.80;;
12441;SDS011;6285;48.804;9.220;2022-07-21T06:58:25;10.55;;;8.93;;
12441;SDS011;6285;48.804;9.220;2022-07-21T07:00:52;9.38;;;8.40;;
12441;SDS011;6285;48.804;9.220;2022-07-21T07:03:21;9.38;;;8.45;;
12441;SDS011;6285;48.804;9.220;2022-07-21T07:05:48;9.27;;;8.32;;
12441;SDS011;6285;48.804;9.220;2022-07-21T07:08:15;8.98;;;8.07;;
12441;SDS011;6285;48.804;9.220;2022-07-21T07:10:43;8.32;;;7.60;;
12441;SDS011;6285;48.804;9.220;2022-07-21T07:13:11;8.13;;;7.43;;
12441;SDS011;6285;48.804;9.220;2022-07-21T07:15:40;10.13;;;7.97;;
12441;SDS011;6285;48.804;9.220;2022-07-21T07:18:07;19.58;;;17.70;;
12441;SDS011;6285;48.804;9.220;2022-07-21T07:20:35;8.95;;;8.15;;
12441;SDS011;6285;48.804;9.220;2022-07-21T07:23:03;9.65;;;8.00;;
12441;SDS011;6285;48.804;9.220;2022-07-21T07:25:29;10.27;;;8.48;;
12441;SDS011;6285;48.804;9.220;2022-07-21T07:27:56;8.63;;;7.82;;
12441;SDS011;6285;48.804;9.220;2022-07-21T07:30:24;8.10;;;7.30;;
12441;SDS011;6285;48.804;9.220;2022-07-21T07:32:51;8.57;;;7.15;;
12441;SDS011;6285;48.804;9.220;2022-07-21T07:35:18;8.30;;;7.55;;
12441;SDS011;6285;48.804;9.220;2022-07-21T07:37:48;8.05;;;7.28;;
12441;SDS011;6285;48.804;9.220;2022-07-21T07:40:17;8.65;;;7.60;;
12441;SDS011;6285;48.804;9.220;2022-07-21T07:42:44;7.80;;;7.20;;
12441;SDS011;6285;48.804;9.220;2022-07-21T07:45:12;8.73;;;7.65;;
12441;SDS011;6285;48.804;9.220;2022-07-21T07:47:39;8.43;;;7.63;;
12441;SDS011;6285;48.804;9.220;2022-07-21T07:50:07;8.35;;;7.32;;
12441;SDS011;6285;48.804;9.220;2022-07-21T07:52:34;8.65;;;7.53;;
12441;SDS011;6285;48.804;9.220;2022-07-21T07:55:03;8.05;;;7.35;;
12441;SDS011;6285;48.804;9.220;2022-07-21T07:57:33;9.25;;;7.03;;
12441;SDS011;6285;48.804;9.220;2022-07-21T08:00:03;8.05;;;7.35;;
12441;SDS011;6285;48.804;9.220;2022-07-21T08:02:30;9.05;;;7.07;;
12441;SDS011;6285;48.804;9.220;2022-07-21T08:04:57;7.45;;;6.75;;
12441;SDS011;6285;48.804;9.220;2022-07-21T08:07:24;7.82;;;7.20;;
12441;SDS011;6285;48.804;9.220;2022-07-21T08:09:51;8.63;;;7.20;;
12441;SDS011;6285;48.804;9.220;2022-07-21T08:12:20;8.50;;;6.53;;
12441;SDS011;6285;48.804;9.220;2022-07-21T08:14:46;7.25;;;6.65;;
12441;SDS011;6285;48.804;9.220;2022-07-21T08:17:13;6.25;;;5.65;;
12441;SDS011;6285;48.804;9.220;2022-07-21T08:19:41;8.95;;;6.97;;
12441;SDS011;6285;48.804;9.220;2022-07-21T08:22:08;7.80;;;7.03;;
12441;SDS011;6285;48.804;9.220;2022-07-21T08:24:35;8.38;;;5.93;;
12441;SDS011;6285;48.804;9.220;2022-07-21T08:27:02;6.93;;;6.32;;
12441;SDS011;6285;48.804;9.220;2022-07-21T08:29:31;7.28;;;6.30;;
12441;SDS011;6285;48.804;9.220;2022-07-21T08:31:58;8.88;;;6.90;;
12441;SDS011;6285;48.804;9.220;2022-07-21T08:34:25;7.95;;;6.32;;
12441;SDS011;6285;48.804;9.220;2022-07-21T08:36:52;7.22;;;6.63;;
12441;SDS011;6285;48.804;9.220;2022-07-21T08:39:19;7.88;;;7.10;;
12441;SDS011;6285;48.804;9.220;2022-07-21T08:41:46;8.23;;;7.43;;
12441;SDS011;6285;48.804;9.220;2022-07-21T08:44:13;7.10;;;6.50;;
12441;SDS011;6285;48.804;9.220;2022-07-21T08:46:42;6.93;;;6.32;;
12441;SDS011;6285;48.804;9.220;2022-07-21T08:49:09;6.80;;;6.20;;
12441;SDS011;6285;48.804;9.220;2022-07-21T08:51:36;6.70;;;6.10;;
12441;SDS011;6285;48.804;9.220;2022-07-21T08:54:04;6.68;;;5.75;;
12441;SDS011;6285;48.804;9.220;2022-07-21T08:56:31;6.70;;;6.10;;
12441;SDS011;6285;48.804;9.220;2022-07-21T08:58:58;8.40;;;6.75;;
12441;SDS011;6285;48.804;9.220;2022-07-21T09:01:26;7.03;;;5.80;;
12441;SDS011;6285;48.804;9.220;2022-07-21T09:03:54;7.70;;;6.60;;
12441;SDS011;6285;48.804;9.220;2022-07-21T09:06:21;7.00;;;6.40;;
12441;SDS011;6285;48.804;9.220;2022-07-21T09:08:49;6.65;;;6.05;;
12441;SDS011;6285;48.804;9.220;2022-07-21T09:11:17;6.68;;;5.97;;
12441;SDS011;6285;48.804;9.220;2022-07-21T09:13:47;7.00;;;5.80;;
12441;SDS011;6285;48.804;9.220;2022-07-21T09:16:31;6.25;;;5.63;;
12441;SDS011;6285;48.804;9.220;2022-07-21T09:19:01;7.80;;;5.80;;
12441;SDS011;6285;48.804;9.220;2022-07-21T09:21:28;7.53;;;6.07;;
12441;SDS011;6285;48.804;9.220;2022-07-21T09:24:10;7.53;;;6.30;;
12441;SDS011;6285;48.804;9.220;2022-07-21T09:29:26;6.05;;;5.45;;
12441;SDS011;6285;48.804;9.220;2022-07-21T09:31:53;6.20;;;5.60;;
12441;SDS011;6285;48.804;9.220;2022-07-21T09:34:21;7.00;;;5.80;;
12441;SDS011;6285;48.804;9.220;2022-07-21T09:36:54;7.10;;;6.00;;
12441;SDS011;6285;48.804;9.220;2022-07-21T09:42:10;6.18;;;5.57;;
12441;SDS011;6285;48.804;9.220;2022-07-21T09:44:38;9.45;;;5.90;;
12441;SDS011;6285;48.804;9.220;2022-07-21T09:47:11;8.05;;;5.32;;
12441;SDS011;6285;48.804;9.220;2022-07-21T09:49:40;6.35;;;4.68;;
12441;SDS011;6285;48.804;9.220;2022-07-21T09:52:23;5.50;;;4.80;;
12441;SDS011;6285;48.804;9.220;2022-07-21T09:54:51;5.35;;;4.70;;
12441;SDS011;6285;48.804;9.220;2022-07-21T09:57:18;6.45;;;4.97;;
12441;SDS011;6285;48.804;9.220;2022-07-21T09:59:47;7.28;;;5.65;;
12441;SDS011;6285;48.804;9.220;2022-07-21T10:02:15;5.57;;;4.55;;
12441;SDS011;6285;48.804;9.220;2022-07-21T10:04:48;5.38;;;4.80;;
12441;SDS011;6285;48.804;9.220;2022-07-21T10:07:17;5.20;;;4.70;;
12441;SDS011;6285;48.804;9.220;2022-07-21T10:09:45;4.85;;;4.45;;
12441;SDS011;6285;48.804;9.220;2022-07-21T10:12:12;5.28;;;4.78;;
12441;SDS011;6285;48.804;9.220;2022-07-21T10:14:39;5.30;;;4.90;;
12441;SDS011;6285;48.804;9.220;2022-07-21T10:17:06;5.70;;;4.55;;
12441;SDS011;6285;48.804;9.220;2022-07-21T10:19:34;4.90;;;4.40;;
12441;SDS011;6285;48.804;9.220;2022-07-21T10:22:06;5.05;;;4.43;;
12441;SDS011;6285;48.804;9.220;2022-07-21T10:24:35;5.22;;;4.72;;
12441;SDS011;6285;48.804;9.220;2022-07-21T10:27:03;7.70;;;4.60;;
12441;SDS011;6285;48.804;9.220;2022-07-21T10:29:51;7.25;;;4.90;;
12441;SDS011;6285;48.804;9.220;2022-07-21T10:32:24;5.60;;;5.10;;
12441;SDS011;6285;48.804;9.220;2022-07-21T10:34:52;5.90;;;5.30;;
12441;SDS011;6285;48.804;9.220;2022-07-21T10:40:04;7.10;;;6.40;;
12441;SDS011;6285;48.804;9.220;2022-07-21T10:42:31;6.10;;;5.15;;
12441;SDS011;6285;48.804;9.220;2022-07-21T10:44:58;7.57;;;4.97;;
12441;SDS011;6285;48.804;9.220;2022-07-21T10:47:25;5.38;;;4.88;;
12441;SDS011;6285;48.804;9.220;2022-07-21T10:49:55;5.35;;;4.85;;
12441;SDS011;6285;48.804;9.220;2022-07-21T10:55:15;4.63;;;4.22;;
12441;SDS011;6285;48.804;9.220;2022-07-21T10:57:51;4.70;;;4.30;;
12441;SDS011;6285;48.804;9.220;2022-07-21T11:00:36;5.30;;;4.90;;
12441;SDS011;6285;48.804;9.220;2022-07-21T11:03:03;5.07;;;4.68;;
12441;SDS011;6285;48.804;9.220;2022-07-21T11:05:32;5.50;;;5.10;;
12441;SDS011;6285;48.804;9.220;2022-07-21T11:08:15;5.55;;;4.90;;
12441;SDS011;6285;48.804;9.220;2022-07-21T11:10:45;6.20;;;4.70;;
12441;SDS011;6285;48.804;9.220;2022-07-21T11:13:13;5.25;;;4.65;;
12441;SDS011;6285;48.804;9.220;2022-07-21T11:15:44;5.20;;;4.70;;
12441;SDS011;6285;48.804;9.220;2022-07-21T11:18:11;5.75;;;4.88;;
12441;SDS011;6285;48.804;9.220;2022-07-21T11:20:38;5.00;;;4.50;;
12441;SDS011;6285;48.804;9.220;2022-07-21T11:23:05;5.10;;;4.35;;
12441;SDS011;6285;48.804;9.220;2022-07-21T11:25:33;4.95;;;4.28;;
12441;SDS011;6285;48.804;9.220;2022-07-21T11:28:02;4.78;;;4.28;;
12441;SDS011;6285;48.804;9.220;2022-07-21T11:30:29;4.65;;;3.88;;
12441;SDS011;6285;48.804;9.220;2022-07-21T11:32:56;4.93;;;3.53;;
12441;SDS011;6285;48.804;9.220;2022-07-21T11:35:23;3.95;;;3.35;;
12441;SDS011;6285;48.804;9.220;2022-07-21T11:37:50;5.63;;;3.83;;
12441;SDS011;6285;48.804;9.220;2022-07-21T11:40:19;3.65;;;3.28;;
12441;SDS011;6285;48.804;9.220;2022-07-21T11:42:47;3.47;;;3.17;;
12441;SDS011;6285;48.804;9.220;2022-07-21T11:45:15;4.45;;;3.88;;
12441;SDS011;6285;48.804;9.220;2022-07-21T11:47:43;4.65;;;3.92;;
12441;SDS011;6285;48.804;9.220;2022-07-21T11:50:10;4.68;;;4.05;;
12441;SDS011;6285;48.804;9.220;2022-07-21T11:52:39;4.47;;;4.07;;
12441;SDS011;6285;48.804;9.220;2022-07-21T11:55:07;4.75;;;3.60;;
12441;SDS011;6285;48.804;9.220;2022-07-21T11:57:35;5.38;;;4.00;;
12441;SDS011;6285;48.804;9.220;2022-07-21T12:00:03;4.65;;;4.22;;
12441;SDS011;6285;48.804;9.220;2022-07-21T12:02:34;4.10;;;3.80;;
12441;SDS011;6285;48.804;9.220;2022-07-21T12:05:02;4.85;;;4.32;;
12441;SDS011;6285;48.804;9.220;2022-07-21T12:07:35;5.40;;;4.03;;
12441;SDS011;6285;48.804;9.220;2022-07-21T12:10:04;4.90;;;4.25;;
12441;SDS011;6285;48.804;9.220;2022-07-21T12:12:33;6.05;;;4.10;;
12441;SDS011;6285;48.804;9.220;2022-07-21T12:15:10;4.80;;;3.97;;
12441;SDS011;6285;48.804;9.220;2022-07-21T12:17:39;4.40;;;3.97;;
12441;SDS011;6285;48.804;9.220;2022-07-21T12:20:08;4.40;;;4.05;;
12441;SDS011;6285;48.804;9.220;2022-07-21T12:22:36;4.93;;;4.38;;
12441;SDS011;6285;48.804;9.220;2022-07-21T12:25:05;5.40;;;4.45;;
12441;SDS011;6285;48.804;9.220;2022-07-21T12:27:33;6.32;;;4.45;;
12441;SDS011;6285;48.804;9.220;2022-07-21T12:30:01;4.57;;;4.18;;
12441;SDS011;6285;48.804;9.220;2022-07-21T12:32:39;5.72;;;5.05;;
12441;SDS011;6285;48.804;9.220;2022-07-21T12:35:16;5.70;;;5.20;;
12441;SDS011;6285;48.804;9.220;2022-07-21T12:37:52;7.65;;;5.60;;
12441;SDS011;6285;48.804;9.220;2022-07-21T12:40:21;5.70;;;5.20;;
12441;SDS011;6285;48.804;9.220;2022-07-21T12:42:49;6.32;;;5.65;;
12441;SDS011;6285;48.804;9.220;2022-07-21T12:45:16;6.35;;;5.75;;
12441;SDS011;6285;48.804;9.220;2022-07-21T12:50:27;6.75;;;5.50;;
12441;SDS011;6285;48.804;9.220;2022-07-21T12:52:54;6.20;;;5.30;;
12441;SDS011;6285;48.804;9.220;2022-07-21T12:55:21;6.22;;;5.63;;
12441;SDS011;6285;48.804;9.220;2022-07-21T12:57:48;6.60;;;6.00;;
12441;SDS011;6285;48.804;9.220;2022-07-21T13:00:15;6.22;;;5.45;;
12441;SDS011;6285;48.804;9.220;2022-07-21T13:02:45;7.18;;;5.90;;
12441;SDS011;6285;48.804;9.220;2022-07-21T13:05:12;8.23;;;5.50;;
12441;SDS011;6285;48.804;9.220;2022-07-21T13:07:41;6.68;;;5.55;;
12441;SDS011;6285;48.804;9.220;2022-07-21T13:10:07;6.03;;;5.32;;
12441;SDS011;6285;48.804;9.220;2022-07-21T13:12:34;6.20;;;5.60;;
12441;SDS011;6285;48.804;9.220;2022-07-21T13:15:01;6.07;;;5.47;;
12441;SDS011;6285;48.804;9.220;2022-07-21T13:17:28;6.93;;;5.68;;
12441;SDS011;6285;48.804;9.220;2022-07-21T13:19:55;5.93;;;5.43;;
12441;SDS011;6285;48.804;9.220;2022-07-21T13:22:22;5.70;;;5.15;;
12441;SDS011;6285;48.804;9.220;2022-07-21T13:24:51;6.35;;;5.72;;
12441;SDS011;6285;48.804;9.220;2022-07-21T13:27:18;8.27;;;5.65;;
12441;SDS011;6285;48.804;9.220;2022-07-21T13:29:45;7.07;;;5.53;;
12441;SDS011;6285;48.804;9.220;2022-07-21T13:32:12;5.85;;;5.28;;
12441;SDS011;6285;48.804;9.220;2022-07-21T13:34:39;6.47;;;5.15;;
12441;SDS011;6285;48.804;9.220;2022-07-21T13:37:06;6.32;;;5.72;;
12441;SDS011;6285;48.804;9.220;2022-07-21T13:39:36;6.35;;;5.38;;
12441;SDS011;6285;48.804;9.220;2022-07-21T13:42:04;7.30;;;5.80;;
12441;SDS011;6285;48.804;9.220;2022-07-21T13:44:32;8.20;;;7.25;;
12441;SDS011;6285;48.804;9.220;2022-07-21T13:46:59;7.80;;;5.13;;
12441;SDS011;6285;48.804;9.220;2022-07-21T13:49:26;5.45;;;4.70;;
12441;SDS011;6285;48.804;9.220;2022-07-21T13:51:53;5.88;;;5.28;;
12441;SDS011;6285;48.804;9.220;2022-07-21T13:54:20;5.22;;;4.72;;
12441;SDS011;6285;48.804;9.220;2022-07-21T13:56:47;5.20;;;4.75;;
12441;SDS011;6285;48.804;9.220;2022-07-21T13:59:15;5.45;;;4.95;;
12441;SDS011;6285;48.804;9.220;2022-07-21T14:01:42;8.30;;;7.07;;
12441;SDS011;6285;48.804;9.220;2022-07-21T14:04:09;6.00;;;5.47;;
12441;SDS011;6285;48.804;9.220;2022-07-21T14:06:36;5.50;;;5.00;;
12441;SDS011;6285;48.804;9.220;2022-07-21T14:09:03;5.60;;;5.20;;
12441;SDS011;6285;48.804;9.220;2022-07-21T14:11:30;7.10;;;4.50;;
12441;SDS011;6285;48.804;9.220;2022-07-21T14:13:57;4.93;;;4.53;;
12441;SDS011;6285;48.804;9.220;2022-07-21T14:16:26;4.82;;;4.43;;
12441;SDS011;6285;48.804;9.220;2022-07-21T14:18:53;5.40;;;4.90;;
12441;SDS011;6285;48.804;9.220;2022-07-21T14:21:19;4.97;;;4.53;;
12441;SDS011;6285;48.804;9.220;2022-07-21T14:23:46;5.25;;;4.50;;
12441;SDS011;6285;48.804;9.220;2022-07-21T14:26:33;7.63;;;5.70;;
12441;SDS011;6285;48.804;9.220;2022-07-21T14:29:01;5.55;;;4.15;;
12441;SDS011;6285;48.804;9.220;2022-07-21T14:31:29;7.13;;;5.25;;
12441;SDS011;6285;48.804;9.220;2022-07-21T14:33:56;6.85;;;4.82;;
12441;SDS011;6285;48.804;9.220;2022-07-21T14:36:23;5.47;;;4.88;;
12441;SDS011;6285;48.804;9.220;2022-07-21T14:38:50;5.03;;;4.50;;
12441;SDS011;6285;48.804;9.220;2022-07-21T14:41:17;6.28;;;4.32;;
12441;SDS011;6285;48.804;9.220;2022-07-21T14:43:44;5.13;;;4.60;;
12441;SDS011;6285;48.804;9.220;2022-07-21T14:46:13;5.25;;;4.75;;
12441;SDS011;6285;48.804;9.220;2022-07-21T14:48:43;5.93;;;4.60;;
12441;SDS011;6285;48.804;9.220;2022-07-21T14:51:10;8.10;;;5.35;;
12441;SDS011;6285;48.804;9.220;2022-07-21T14:53:37;5.30;;;4.75;;
12441;SDS011;6285;48.804;9.220;2022-07-21T14:56:04;5.18;;;4.75;;
12441;SDS011;6285;48.804;9.220;2022-07-21T14:58:31;6.05;;;4.13;;
12441;SDS011;6285;48.804;9.220;2022-07-21T15:00:58;6.00;;;4.90;;
12441;SDS011;6285;48.804;9.220;2022-07-21T15:03:25;5.30;;;4.80;;
12441;SDS011;6285;48.804;9.220;2022-07-21T15:05:54;4.85;;;4.30;;